QFA195 YBBN-NZWN
Flight info
| Callsign | QFA195 |
|---|---|
| Flight time | 2h 48m |
| Altitude | 39000 |
| Route | SCOTT J208 LHI M639 GULUT |
| Aircraft | A21N/M-SDE2E3FGHIRWXY/LB1 |
Departure
| Time | 2026-05-06 07:16 |
|---|---|
| Airport | Brisbane International Airport (YBBN) |
Arrival
| Time | 2026-05-06 10:05 |
|---|---|
| Airport | Wellington International Airport (NZWN) |
| Time | Latitude | Longitude | Altitude | Speed | Heading |
|---|---|---|---|---|---|
| 2026-05-06 07:10 | -27.38333 | 153.12299 | 21 ft | 0 kts | 289° |
| 2026-05-06 07:13 | -27.38334 | 153.12303 | 21 ft | 3 kts | 289° |
| 2026-05-06 07:13 | -27.38340 | 153.12323 | 22 ft | 2 kts | 288° |
| 2026-05-06 07:13 | -27.38344 | 153.12343 | 22 ft | 2 kts | 282° |
| 2026-05-06 07:14 | -27.38354 | 153.12359 | 23 ft | 3 kts | 344° |
| 2026-05-06 07:14 | -27.38366 | 153.12360 | 22 ft | 0 kts | 21° |
| 2026-05-06 07:14 | -27.38365 | 153.12361 | 22 ft | 1 kts | 27° |
| 2026-05-06 07:14 | -27.38353 | 153.12442 | 21 ft | 27 kts | 96° |
| 2026-05-06 07:15 | -27.38408 | 153.12636 | 21 ft | 16 kts | 143° |
| 2026-05-06 07:15 | -27.38464 | 153.12775 | 23 ft | 23 kts | 126° |
| 2026-05-06 07:15 | -27.38619 | 153.12770 | 24 ft | 34 kts | 206° |
| 2026-05-06 07:15 | -27.39128 | 153.12493 | 20 ft | 133 kts | 206° |
| 2026-05-06 07:16 | -27.40210 | 153.11931 | 265 ft | 200 kts | 201° |
| 2026-05-06 07:16 | -27.41701 | 153.11433 | 810 ft | 242 kts | 187° |
| 2026-05-06 07:16 | -27.43399 | 153.11539 | 2113 ft | 252 kts | 161° |
| 2026-05-06 07:16 | -27.44434 | 153.12173 | 2916 ft | 260 kts | 138° |
| 2026-05-06 07:17 | -27.45960 | 153.14233 | 5044 ft | 259 kts | 126° |
| 2026-05-06 07:17 | -27.47013 | 153.15929 | 6447 ft | 269 kts | 125° |
| 2026-05-06 07:17 | -27.47727 | 153.17095 | 7288 ft | 276 kts | 125° |
| 2026-05-06 07:17 | -27.48842 | 153.18907 | 8624 ft | 285 kts | 126° |
| 2026-05-06 07:18 | -27.49994 | 153.20767 | 9990 ft | 293 kts | 126° |
| 2026-05-06 07:18 | -27.51619 | 153.23374 | 11162 ft | 327 kts | 126° |
| 2026-05-06 07:18 | -27.52539 | 153.24846 | 11501 ft | 352 kts | 126° |
| 2026-05-06 07:18 | -27.54022 | 153.27217 | 11991 ft | 386 kts | 126° |
| 2026-05-06 07:19 | -27.55609 | 153.29757 | 12788 ft | 405 kts | 125° |
| 2026-05-06 07:19 | -27.57235 | 153.32359 | 13815 ft | 416 kts | 125° |
| 2026-05-06 07:19 | -27.58920 | 153.35057 | 14751 ft | 425 kts | 125° |
| 2026-05-06 07:19 | -27.60645 | 153.37821 | 15659 ft | 435 kts | 125° |
| 2026-05-06 07:20 | -27.62403 | 153.40639 | 16558 ft | 443 kts | 125° |
| 2026-05-06 07:20 | -27.64191 | 153.43507 | 17425 ft | 451 kts | 125° |
| 2026-05-06 07:20 | -27.66016 | 153.46435 | 18149 ft | 461 kts | 125° |
| 2026-05-06 07:20 | -27.67882 | 153.49431 | 18788 ft | 469 kts | 125° |
| 2026-05-06 07:21 | -27.69746 | 153.52426 | 19424 ft | 475 kts | 126° |
| 2026-05-06 07:21 | -27.71659 | 153.55503 | 20044 ft | 481 kts | 126° |
| 2026-05-06 07:21 | -27.73594 | 153.58617 | 20680 ft | 485 kts | 126° |
| 2026-05-06 07:21 | -27.75553 | 153.61771 | 21217 ft | 491 kts | 126° |
| 2026-05-06 07:22 | -27.77501 | 153.64911 | 21726 ft | 496 kts | 126° |
| 2026-05-06 07:22 | -27.79493 | 153.68122 | 22229 ft | 502 kts | 126° |
| 2026-05-06 07:22 | -27.81508 | 153.71374 | 22724 ft | 507 kts | 126° |
| 2026-05-06 07:22 | -27.83542 | 153.74660 | 23190 ft | 512 kts | 126° |
| 2026-05-06 07:23 | -27.85591 | 153.77972 | 23638 ft | 517 kts | 126° |
| 2026-05-06 07:23 | -27.87683 | 153.81246 | 24010 ft | 521 kts | 129° |
| 2026-05-06 07:23 | -27.89943 | 153.84463 | 24403 ft | 524 kts | 131° |
| 2026-05-06 07:23 | -27.92291 | 153.87638 | 24764 ft | 528 kts | 132° |
| 2026-05-06 07:24 | -27.94640 | 153.90757 | 24906 ft | 532 kts | 132° |
| 2026-05-06 07:24 | -27.97053 | 153.93958 | 25013 ft | 536 kts | 132° |
| 2026-05-06 07:24 | -27.99473 | 153.97188 | 25105 ft | 540 kts | 132° |
| 2026-05-06 07:24 | -28.01872 | 154.00414 | 25236 ft | 543 kts | 131° |
| 2026-05-06 07:25 | -28.04299 | 154.03697 | 25444 ft | 543 kts | 131° |
| 2026-05-06 07:25 | -28.06722 | 154.06990 | 25681 ft | 544 kts | 131° |
| 2026-05-06 07:25 | -28.09152 | 154.10300 | 25913 ft | 545 kts | 131° |
| 2026-05-06 07:25 | -28.11580 | 154.13614 | 26198 ft | 545 kts | 131° |
| 2026-05-06 07:26 | -28.13982 | 154.16894 | 26487 ft | 545 kts | 131° |
| 2026-05-06 07:26 | -28.16401 | 154.20199 | 26795 ft | 545 kts | 131° |
| 2026-05-06 07:26 | -28.18823 | 154.23509 | 27096 ft | 545 kts | 131° |
| 2026-05-06 07:26 | -28.21247 | 154.26825 | 27399 ft | 545 kts | 131° |
| 2026-05-06 07:27 | -28.23667 | 154.30137 | 27730 ft | 545 kts | 131° |
| 2026-05-06 07:27 | -28.26085 | 154.33448 | 28055 ft | 545 kts | 131° |
| 2026-05-06 07:27 | -28.28504 | 154.36762 | 28368 ft | 545 kts | 131° |
| 2026-05-06 07:27 | -28.30886 | 154.40028 | 28725 ft | 544 kts | 131° |
| 2026-05-06 07:28 | -28.33301 | 154.43341 | 29093 ft | 544 kts | 131° |
| 2026-05-06 07:28 | -28.35717 | 154.46658 | 29462 ft | 543 kts | 131° |
| 2026-05-06 07:28 | -28.40536 | 154.53282 | 30195 ft | 543 kts | 131° |
| 2026-05-06 07:29 | -28.42925 | 154.56570 | 30489 ft | 544 kts | 132° |
| 2026-05-06 07:29 | -28.45337 | 154.59892 | 30770 ft | 545 kts | 132° |
| 2026-05-06 07:29 | -28.47755 | 154.63226 | 31074 ft | 545 kts | 132° |
| 2026-05-06 07:29 | -28.50178 | 154.66571 | 31373 ft | 546 kts | 132° |
| 2026-05-06 07:30 | -28.52599 | 154.69915 | 31699 ft | 546 kts | 132° |
| 2026-05-06 07:30 | -28.54983 | 154.73212 | 32036 ft | 546 kts | 133° |
| 2026-05-06 07:30 | -28.57413 | 154.76574 | 32343 ft | 547 kts | 133° |
| 2026-05-06 07:30 | -28.59836 | 154.79930 | 32650 ft | 548 kts | 133° |
| 2026-05-06 07:31 | -28.62228 | 154.83244 | 32946 ft | 548 kts | 133° |
| 2026-05-06 07:31 | -28.64655 | 154.86610 | 33246 ft | 549 kts | 133° |
| 2026-05-06 07:31 | -28.67083 | 154.89981 | 33539 ft | 550 kts | 133° |
| 2026-05-06 07:31 | -28.69518 | 154.93364 | 33845 ft | 551 kts | 133° |
| 2026-05-06 07:32 | -28.71949 | 154.96743 | 34117 ft | 552 kts | 133° |
| 2026-05-06 07:32 | -28.74357 | 155.00095 | 34340 ft | 552 kts | 134° |
| 2026-05-06 07:32 | -28.76796 | 155.03491 | 34592 ft | 553 kts | 134° |
| 2026-05-06 07:32 | -28.79234 | 155.06890 | 34829 ft | 553 kts | 134° |
| 2026-05-06 07:33 | -28.81678 | 155.10299 | 35052 ft | 554 kts | 134° |
| 2026-05-06 07:33 | -28.84094 | 155.13671 | 35328 ft | 553 kts | 134° |
| 2026-05-06 07:33 | -28.86527 | 155.17072 | 35628 ft | 552 kts | 134° |
| 2026-05-06 07:33 | -28.88972 | 155.20492 | 35855 ft | 553 kts | 134° |
| 2026-05-06 07:34 | -28.91404 | 155.23895 | 36035 ft | 554 kts | 134° |
| 2026-05-06 07:34 | -28.93840 | 155.27306 | 36220 ft | 555 kts | 134° |
| 2026-05-06 07:34 | -28.96264 | 155.30703 | 36414 ft | 556 kts | 134° |
| 2026-05-06 07:34 | -28.98707 | 155.34130 | 36606 ft | 556 kts | 134° |
| 2026-05-06 07:35 | -29.01157 | 155.37566 | 36811 ft | 557 kts | 134° |
| 2026-05-06 07:35 | -29.03613 | 155.41014 | 37011 ft | 558 kts | 134° |
| 2026-05-06 07:35 | -29.06037 | 155.44419 | 37218 ft | 558 kts | 134° |
| 2026-05-06 07:35 | -29.08491 | 155.47870 | 37419 ft | 559 kts | 134° |
| 2026-05-06 07:36 | -29.10944 | 155.51323 | 37615 ft | 559 kts | 134° |
| 2026-05-06 07:36 | -29.13400 | 155.54782 | 37816 ft | 560 kts | 135° |
| 2026-05-06 07:36 | -29.15863 | 155.58254 | 38019 ft | 561 kts | 135° |
| 2026-05-06 07:36 | -29.18300 | 155.61693 | 38214 ft | 561 kts | 135° |
| 2026-05-06 07:37 | -29.20761 | 155.65170 | 38513 ft | 561 kts | 135° |
| 2026-05-06 07:37 | -29.23222 | 155.68650 | 38782 ft | 560 kts | 135° |
| 2026-05-06 07:37 | -29.25685 | 155.72135 | 38973 ft | 560 kts | 135° |
| 2026-05-06 07:37 | -29.28112 | 155.75572 | 39089 ft | 558 kts | 135° |
| 2026-05-06 07:38 | -29.33003 | 155.82503 | 39071 ft | 559 kts | 135° |
| 2026-05-06 07:38 | -29.37869 | 155.89410 | 39067 ft | 559 kts | 135° |
| 2026-05-06 07:39 | -29.42757 | 155.96363 | 39072 ft | 559 kts | 135° |
| 2026-05-06 07:39 | -29.47648 | 156.03333 | 39073 ft | 558 kts | 135° |
| 2026-05-06 07:40 | -29.52486 | 156.10238 | 39072 ft | 558 kts | 135° |
| 2026-05-06 07:40 | -29.57359 | 156.17205 | 39077 ft | 557 kts | 134° |
| 2026-05-06 07:41 | -29.62179 | 156.24110 | 39072 ft | 556 kts | 134° |
| 2026-05-06 07:41 | -29.67007 | 156.31036 | 39071 ft | 555 kts | 134° |
| 2026-05-06 07:42 | -29.71832 | 156.37969 | 39068 ft | 554 kts | 134° |
| 2026-05-06 07:42 | -29.76660 | 156.44919 | 39071 ft | 554 kts | 134° |
| 2026-05-06 07:43 | -29.81450 | 156.51824 | 39075 ft | 554 kts | 134° |
| 2026-05-06 07:43 | -29.86270 | 156.58786 | 39068 ft | 554 kts | 134° |
| 2026-05-06 07:44 | -29.91081 | 156.65748 | 39071 ft | 554 kts | 134° |
| 2026-05-06 07:44 | -29.95847 | 156.72658 | 39074 ft | 552 kts | 134° |
| 2026-05-06 07:45 | -30.00630 | 156.79603 | 39069 ft | 551 kts | 134° |
| 2026-05-06 07:45 | -30.05369 | 156.86494 | 39070 ft | 551 kts | 134° |
| 2026-05-06 07:46 | -30.10142 | 156.93448 | 39074 ft | 551 kts | 134° |
| 2026-05-06 07:46 | -30.14870 | 157.00347 | 39074 ft | 550 kts | 134° |
| 2026-05-06 07:47 | -30.19626 | 157.07300 | 39073 ft | 550 kts | 134° |
| 2026-05-06 07:47 | -30.24381 | 157.14264 | 39072 ft | 550 kts | 134° |
| 2026-05-06 07:48 | -30.29098 | 157.21184 | 39093 ft | 550 kts | 133° |
| 2026-05-06 07:48 | -30.33822 | 157.28128 | 39070 ft | 547 kts | 133° |
| 2026-05-06 07:49 | -30.38537 | 157.35071 | 39071 ft | 547 kts | 133° |
| 2026-05-06 07:49 | -30.43210 | 157.41961 | 39071 ft | 547 kts | 133° |
| 2026-05-06 07:50 | -30.47919 | 157.48916 | 39074 ft | 547 kts | 133° |
| 2026-05-06 07:50 | -30.52620 | 157.55872 | 39074 ft | 547 kts | 133° |
| 2026-05-06 07:51 | -30.57272 | 157.62770 | 39071 ft | 546 kts | 133° |
| 2026-05-06 07:51 | -30.61962 | 157.69734 | 39077 ft | 546 kts | 133° |
| 2026-05-06 07:52 | -30.66647 | 157.76704 | 39075 ft | 545 kts | 133° |
| 2026-05-06 07:52 | -30.71281 | 157.83612 | 39077 ft | 545 kts | 133° |
| 2026-05-06 07:53 | -30.75943 | 157.90572 | 39066 ft | 544 kts | 133° |
| 2026-05-06 07:53 | -30.80589 | 157.97520 | 39070 ft | 544 kts | 133° |
| 2026-05-06 07:54 | -30.85241 | 158.04489 | 39067 ft | 544 kts | 132° |
| 2026-05-06 07:54 | -30.89866 | 158.11431 | 39067 ft | 544 kts | 132° |
| 2026-05-06 07:55 | -30.94499 | 158.18396 | 39086 ft | 544 kts | 132° |
| 2026-05-06 07:55 | -30.99102 | 158.25329 | 39097 ft | 543 kts | 132° |
| 2026-05-06 07:56 | -31.03730 | 158.32313 | 39069 ft | 542 kts | 132° |
| 2026-05-06 07:56 | -31.08314 | 158.39242 | 39069 ft | 541 kts | 132° |
| 2026-05-06 07:57 | -31.12914 | 158.46207 | 39072 ft | 541 kts | 132° |
| 2026-05-06 07:57 | -31.17496 | 158.53158 | 39073 ft | 541 kts | 132° |
| 2026-05-06 07:58 | -31.22094 | 158.60144 | 39072 ft | 541 kts | 132° |
| 2026-05-06 07:58 | -31.26690 | 158.67140 | 39072 ft | 541 kts | 132° |
| 2026-05-06 07:59 | -31.31254 | 158.74102 | 39069 ft | 541 kts | 132° |
| 2026-05-06 07:59 | -31.35818 | 158.81074 | 39079 ft | 541 kts | 131° |
| 2026-05-06 08:00 | -31.40393 | 158.88078 | 39055 ft | 540 kts | 131° |
| 2026-05-06 08:00 | -31.44931 | 158.95037 | 39052 ft | 539 kts | 131° |
| 2026-05-06 08:01 | -31.49486 | 159.02033 | 39048 ft | 539 kts | 131° |
| 2026-05-06 08:01 | -31.54068 | 159.08945 | 39048 ft | 537 kts | 135° |
| 2026-05-06 08:02 | -31.59026 | 159.15477 | 39048 ft | 535 kts | 138° |
| 2026-05-06 08:02 | -31.64090 | 159.21878 | 39052 ft | 534 kts | 138° |
| 2026-05-06 08:03 | -31.69129 | 159.28317 | 39070 ft | 534 kts | 137° |
| 2026-05-06 08:03 | -31.74095 | 159.34746 | 39070 ft | 534 kts | 137° |
| 2026-05-06 08:04 | -31.79088 | 159.41251 | 39067 ft | 534 kts | 137° |
| 2026-05-06 08:04 | -31.84040 | 159.47714 | 39067 ft | 534 kts | 137° |
| 2026-05-06 08:05 | -31.88174 | 159.53118 | 39061 ft | 534 kts | 137° |
| 2026-05-06 08:05 | -31.93146 | 159.59624 | 39067 ft | 533 kts | 137° |
| 2026-05-06 08:06 | -31.98090 | 159.66105 | 39069 ft | 533 kts | 137° |
| 2026-05-06 08:06 | -32.03052 | 159.72620 | 39077 ft | 532 kts | 137° |
| 2026-05-06 08:07 | -32.08792 | 159.80173 | 39066 ft | 531 kts | 137° |
| 2026-05-06 08:07 | -32.12923 | 159.85617 | 39066 ft | 530 kts | 137° |
| 2026-05-06 08:08 | -32.17808 | 159.92064 | 39067 ft | 530 kts | 137° |
| 2026-05-06 08:08 | -32.22737 | 159.98582 | 39064 ft | 529 kts | 137° |
| 2026-05-06 08:09 | -32.27604 | 160.05028 | 39067 ft | 529 kts | 137° |
| 2026-05-06 08:09 | -32.32513 | 160.11541 | 39061 ft | 529 kts | 137° |
| 2026-05-06 08:10 | -32.37424 | 160.18069 | 39068 ft | 528 kts | 136° |
| 2026-05-06 08:10 | -32.42270 | 160.24524 | 39062 ft | 527 kts | 136° |
| 2026-05-06 08:11 | -32.47145 | 160.31027 | 39064 ft | 526 kts | 136° |
| 2026-05-06 08:11 | -32.51990 | 160.37501 | 39064 ft | 526 kts | 136° |
| 2026-05-06 08:12 | -32.56853 | 160.44010 | 39062 ft | 526 kts | 136° |
| 2026-05-06 08:12 | -32.61709 | 160.50522 | 39059 ft | 526 kts | 136° |
| 2026-05-06 08:13 | -32.66530 | 160.56998 | 39056 ft | 525 kts | 136° |
| 2026-05-06 08:13 | -32.71365 | 160.63508 | 39060 ft | 523 kts | 136° |
| 2026-05-06 08:14 | -32.76162 | 160.69975 | 39059 ft | 523 kts | 136° |
| 2026-05-06 08:14 | -32.80981 | 160.76483 | 39056 ft | 523 kts | 136° |
| 2026-05-06 08:15 | -32.85755 | 160.82942 | 39059 ft | 523 kts | 136° |
| 2026-05-06 08:15 | -32.90558 | 160.89451 | 39052 ft | 523 kts | 135° |
| 2026-05-06 08:16 | -32.95353 | 160.95963 | 39059 ft | 521 kts | 135° |
| 2026-05-06 08:16 | -33.00139 | 161.02473 | 39078 ft | 521 kts | 135° |
| 2026-05-06 08:17 | -33.04877 | 161.08929 | 39053 ft | 520 kts | 135° |
| 2026-05-06 08:17 | -33.09653 | 161.15449 | 39056 ft | 520 kts | 135° |
| 2026-05-06 08:18 | -33.14395 | 161.21933 | 39056 ft | 520 kts | 135° |
| 2026-05-06 08:18 | -33.19145 | 161.28442 | 39053 ft | 519 kts | 135° |
| 2026-05-06 08:19 | -33.23872 | 161.34929 | 39050 ft | 518 kts | 135° |
| 2026-05-06 08:19 | -33.28608 | 161.41441 | 39050 ft | 518 kts | 135° |
| 2026-05-06 08:20 | -33.33314 | 161.47922 | 39060 ft | 518 kts | 135° |
| 2026-05-06 08:20 | -33.38041 | 161.54445 | 39050 ft | 518 kts | 135° |
| 2026-05-06 08:21 | -33.42777 | 161.60993 | 39050 ft | 517 kts | 134° |
| 2026-05-06 08:21 | -33.47449 | 161.67464 | 39048 ft | 516 kts | 134° |
| 2026-05-06 08:22 | -33.52153 | 161.73990 | 39047 ft | 516 kts | 134° |
| 2026-05-06 08:22 | -33.56811 | 161.80464 | 39048 ft | 516 kts | 134° |
| 2026-05-06 08:23 | -33.61507 | 161.87003 | 39048 ft | 516 kts | 134° |
| 2026-05-06 08:23 | -33.66203 | 161.93553 | 39052 ft | 516 kts | 134° |
| 2026-05-06 08:24 | -33.70864 | 162.00067 | 39047 ft | 516 kts | 134° |
| 2026-05-06 08:24 | -33.75514 | 162.06577 | 39048 ft | 515 kts | 134° |
| 2026-05-06 08:25 | -33.80190 | 162.13137 | 39047 ft | 515 kts | 134° |
| 2026-05-06 08:25 | -33.84862 | 162.19701 | 39046 ft | 516 kts | 134° |
| 2026-05-06 08:26 | -33.89508 | 162.26243 | 39044 ft | 516 kts | 134° |
| 2026-05-06 08:26 | -33.94172 | 162.32820 | 39048 ft | 515 kts | 133° |
| 2026-05-06 08:27 | -33.98787 | 162.39342 | 39050 ft | 514 kts | 133° |
| 2026-05-06 08:27 | -34.03428 | 162.45910 | 39047 ft | 514 kts | 133° |
| 2026-05-06 08:28 | -34.08075 | 162.52501 | 39049 ft | 514 kts | 133° |
| 2026-05-06 08:28 | -34.12687 | 162.59053 | 39050 ft | 514 kts | 133° |
| 2026-05-06 08:29 | -34.17323 | 162.65653 | 39051 ft | 514 kts | 133° |
| 2026-05-06 08:29 | -34.21926 | 162.72217 | 39047 ft | 513 kts | 133° |
| 2026-05-06 08:30 | -34.26557 | 162.78833 | 39050 ft | 513 kts | 133° |
| 2026-05-06 08:30 | -34.31167 | 162.85433 | 39051 ft | 513 kts | 133° |
| 2026-05-06 08:31 | -34.35749 | 162.92003 | 39047 ft | 513 kts | 133° |
| 2026-05-06 08:31 | -34.40347 | 162.98610 | 39050 ft | 512 kts | 132° |
| 2026-05-06 08:32 | -34.44938 | 163.05219 | 39049 ft | 511 kts | 132° |
| 2026-05-06 08:32 | -34.49498 | 163.11795 | 39051 ft | 511 kts | 132° |
| 2026-05-06 08:33 | -34.54076 | 163.18408 | 39053 ft | 511 kts | 132° |
| 2026-05-06 08:33 | -34.58628 | 163.24996 | 39062 ft | 511 kts | 132° |
| 2026-05-06 08:34 | -34.65476 | 163.34930 | 39052 ft | 511 kts | 131° |
| 2026-05-06 08:35 | -34.70013 | 163.41528 | 39054 ft | 511 kts | 131° |
| 2026-05-06 08:35 | -34.74567 | 163.48162 | 39050 ft | 511 kts | 131° |
| 2026-05-06 08:36 | -34.79123 | 163.54813 | 39054 ft | 511 kts | 131° |
| 2026-05-06 08:36 | -34.83651 | 163.61435 | 39057 ft | 511 kts | 131° |
| 2026-05-06 08:37 | -34.88193 | 163.68090 | 39057 ft | 510 kts | 131° |
| 2026-05-06 08:37 | -34.92727 | 163.74746 | 39059 ft | 510 kts | 131° |
| 2026-05-06 08:38 | -34.97260 | 163.81412 | 39060 ft | 510 kts | 131° |
| 2026-05-06 08:38 | -35.01770 | 163.88058 | 39060 ft | 510 kts | 131° |
| 2026-05-06 08:39 | -35.06305 | 163.94753 | 39053 ft | 510 kts | 131° |
| 2026-05-06 08:39 | -35.10805 | 164.01411 | 39056 ft | 510 kts | 131° |
| 2026-05-06 08:40 | -35.15323 | 164.08107 | 39063 ft | 509 kts | 131° |
| 2026-05-06 08:40 | -35.19814 | 164.14776 | 39082 ft | 509 kts | 131° |
| 2026-05-06 08:41 | -35.24319 | 164.21478 | 39061 ft | 508 kts | 131° |
| 2026-05-06 08:41 | -35.28808 | 164.28170 | 39067 ft | 508 kts | 131° |
| 2026-05-06 08:42 | -35.33271 | 164.34836 | 39065 ft | 508 kts | 131° |
| 2026-05-06 08:42 | -35.37755 | 164.41546 | 39071 ft | 507 kts | 131° |
| 2026-05-06 08:43 | -35.42195 | 164.48203 | 39068 ft | 507 kts | 131° |
| 2026-05-06 08:43 | -35.46660 | 164.54910 | 39074 ft | 507 kts | 131° |
| 2026-05-06 08:44 | -35.51104 | 164.61599 | 39085 ft | 507 kts | 130° |
| 2026-05-06 08:44 | -35.55572 | 164.68337 | 39072 ft | 508 kts | 130° |
| 2026-05-06 08:45 | -35.60025 | 164.75067 | 39073 ft | 509 kts | 131° |
| 2026-05-06 08:45 | -35.64507 | 164.81852 | 39077 ft | 510 kts | 131° |
| 2026-05-06 08:46 | -35.68948 | 164.88588 | 39074 ft | 510 kts | 131° |
| 2026-05-06 08:46 | -35.73428 | 164.95397 | 39079 ft | 510 kts | 131° |
| 2026-05-06 08:47 | -35.77862 | 165.02151 | 39082 ft | 510 kts | 131° |
| 2026-05-06 08:47 | -35.82328 | 165.08966 | 39092 ft | 510 kts | 130° |
| 2026-05-06 08:48 | -35.86766 | 165.15751 | 39083 ft | 511 kts | 130° |
| 2026-05-06 08:48 | -35.91235 | 165.22598 | 39083 ft | 511 kts | 130° |
| 2026-05-06 08:49 | -35.95627 | 165.29340 | 39082 ft | 511 kts | 130° |
| 2026-05-06 08:49 | -36.00055 | 165.36150 | 39090 ft | 511 kts | 130° |
| 2026-05-06 08:50 | -36.04512 | 165.43020 | 39086 ft | 511 kts | 130° |
| 2026-05-06 08:50 | -36.08935 | 165.49851 | 39096 ft | 511 kts | 130° |
| 2026-05-06 08:51 | -36.13381 | 165.56730 | 39105 ft | 512 kts | 130° |
| 2026-05-06 08:51 | -36.17845 | 165.63651 | 39098 ft | 514 kts | 130° |
| 2026-05-06 08:52 | -36.22279 | 165.70540 | 39100 ft | 514 kts | 130° |
| 2026-05-06 08:52 | -36.26747 | 165.77497 | 39103 ft | 514 kts | 130° |
| 2026-05-06 08:53 | -36.31192 | 165.84432 | 39101 ft | 511 kts | 130° |
| 2026-05-06 08:53 | -36.34869 | 165.90179 | 39105 ft | 509 kts | 130° |
| 2026-05-06 08:54 | -36.39241 | 165.97024 | 39110 ft | 509 kts | 130° |
| 2026-05-06 08:54 | -36.43642 | 166.03930 | 39109 ft | 508 kts | 130° |
| 2026-05-06 08:55 | -36.48034 | 166.10836 | 39111 ft | 508 kts | 130° |
| 2026-05-06 08:55 | -36.52397 | 166.17709 | 39111 ft | 509 kts | 130° |
| 2026-05-06 08:56 | -36.56784 | 166.24634 | 39120 ft | 509 kts | 130° |
| 2026-05-06 08:56 | -36.61155 | 166.31548 | 39118 ft | 510 kts | 130° |
| 2026-05-06 08:57 | -36.65538 | 166.38496 | 39122 ft | 510 kts | 130° |
| 2026-05-06 08:57 | -36.69919 | 166.45456 | 39137 ft | 510 kts | 130° |
| 2026-05-06 08:58 | -36.74304 | 166.52434 | 39127 ft | 510 kts | 130° |
| 2026-05-06 08:58 | -36.78659 | 166.59380 | 39129 ft | 510 kts | 130° |
| 2026-05-06 08:59 | -36.83034 | 166.66374 | 39135 ft | 510 kts | 130° |
| 2026-05-06 08:59 | -36.87375 | 166.73326 | 39126 ft | 510 kts | 130° |
| 2026-05-06 09:00 | -36.91737 | 166.80328 | 39140 ft | 510 kts | 130° |
| 2026-05-06 09:00 | -36.96097 | 166.87339 | 39139 ft | 510 kts | 130° |
| 2026-05-06 09:01 | -37.00433 | 166.94327 | 39145 ft | 510 kts | 130° |
| 2026-05-06 09:01 | -37.04780 | 167.01348 | 39137 ft | 509 kts | 130° |
| 2026-05-06 09:02 | -37.09092 | 167.08326 | 39140 ft | 509 kts | 130° |
| 2026-05-06 09:02 | -37.13438 | 167.15374 | 39153 ft | 509 kts | 130° |
| 2026-05-06 09:03 | -37.17757 | 167.22393 | 39148 ft | 509 kts | 129° |
| 2026-05-06 09:03 | -37.22083 | 167.29441 | 39151 ft | 507 kts | 130° |
| 2026-05-06 09:04 | -37.26386 | 167.36464 | 39149 ft | 506 kts | 130° |
| 2026-05-06 09:04 | -37.30654 | 167.43443 | 39150 ft | 507 kts | 129° |
| 2026-05-06 09:05 | -37.34960 | 167.50500 | 39149 ft | 507 kts | 129° |
| 2026-05-06 09:05 | -37.39253 | 167.57552 | 39164 ft | 507 kts | 129° |
| 2026-05-06 09:06 | -37.43517 | 167.64569 | 39159 ft | 508 kts | 129° |
| 2026-05-06 09:06 | -37.47810 | 167.71650 | 39165 ft | 508 kts | 129° |
| 2026-05-06 09:07 | -37.52104 | 167.78748 | 39166 ft | 508 kts | 129° |
| 2026-05-06 09:07 | -37.56389 | 167.85846 | 39180 ft | 508 kts | 129° |
| 2026-05-06 09:08 | -37.60674 | 167.92960 | 39171 ft | 510 kts | 129° |
| 2026-05-06 09:08 | -37.64945 | 168.00065 | 39176 ft | 509 kts | 130° |
| 2026-05-06 09:09 | -37.69223 | 168.07198 | 39176 ft | 508 kts | 130° |
| 2026-05-06 09:09 | -37.73483 | 168.14315 | 39181 ft | 507 kts | 129° |
| 2026-05-06 09:10 | -37.77709 | 168.21391 | 39182 ft | 507 kts | 129° |
| 2026-05-06 09:10 | -37.81964 | 168.28530 | 39185 ft | 507 kts | 129° |
| 2026-05-06 09:11 | -37.90031 | 168.42111 | 39198 ft | 502 kts | 129° |
| 2026-05-06 09:12 | -37.94226 | 168.49195 | 39184 ft | 501 kts | 129° |
| 2026-05-06 09:12 | -37.98397 | 168.56253 | 39196 ft | 501 kts | 129° |
| 2026-05-06 09:13 | -38.02570 | 168.63329 | 39196 ft | 501 kts | 129° |
| 2026-05-06 09:13 | -38.07415 | 168.71565 | 39185 ft | 501 kts | 129° |
| 2026-05-06 09:14 | -38.10865 | 168.77442 | 39197 ft | 497 kts | 129° |
| 2026-05-06 09:14 | -38.14991 | 168.84485 | 39197 ft | 496 kts | 129° |
| 2026-05-06 09:15 | -38.19113 | 168.91535 | 39201 ft | 496 kts | 129° |
| 2026-05-06 09:15 | -38.23220 | 168.98575 | 39206 ft | 496 kts | 129° |
| 2026-05-06 09:16 | -38.27318 | 169.05614 | 39199 ft | 496 kts | 129° |
| 2026-05-06 09:16 | -38.31432 | 169.12698 | 39200 ft | 496 kts | 129° |
| 2026-05-06 09:17 | -38.35535 | 169.19776 | 39212 ft | 496 kts | 129° |
| 2026-05-06 09:17 | -38.39609 | 169.26820 | 39205 ft | 496 kts | 129° |
| 2026-05-06 09:18 | -38.43708 | 169.33922 | 39207 ft | 497 kts | 129° |
| 2026-05-06 09:18 | -38.47808 | 169.41043 | 39217 ft | 498 kts | 129° |
| 2026-05-06 09:19 | -38.51911 | 169.48185 | 39213 ft | 497 kts | 129° |
| 2026-05-06 09:19 | -38.55969 | 169.55263 | 39219 ft | 496 kts | 129° |
| 2026-05-06 09:20 | -38.60046 | 169.62390 | 39229 ft | 496 kts | 129° |
| 2026-05-06 09:20 | -38.64118 | 169.69524 | 39219 ft | 496 kts | 129° |
| 2026-05-06 09:21 | -38.68169 | 169.76635 | 39227 ft | 496 kts | 128° |
| 2026-05-06 09:21 | -38.72233 | 169.83786 | 39225 ft | 496 kts | 128° |
| 2026-05-06 09:22 | -38.76285 | 169.90933 | 39230 ft | 494 kts | 128° |
| 2026-05-06 09:22 | -38.80310 | 169.98047 | 39226 ft | 494 kts | 128° |
| 2026-05-06 09:23 | -38.84347 | 170.05198 | 39241 ft | 494 kts | 128° |
| 2026-05-06 09:23 | -38.88383 | 170.12363 | 39233 ft | 494 kts | 128° |
| 2026-05-06 09:24 | -38.92384 | 170.19480 | 39242 ft | 494 kts | 128° |
| 2026-05-06 09:24 | -38.96404 | 170.26650 | 39245 ft | 494 kts | 128° |
| 2026-05-06 09:25 | -39.00426 | 170.33836 | 39246 ft | 495 kts | 128° |
| 2026-05-06 09:25 | -39.04442 | 170.41029 | 39246 ft | 495 kts | 128° |
| 2026-05-06 09:26 | -39.08433 | 170.48194 | 39254 ft | 495 kts | 128° |
| 2026-05-06 09:26 | -39.12448 | 170.55417 | 39244 ft | 495 kts | 128° |
| 2026-05-06 09:27 | -39.16443 | 170.62622 | 39254 ft | 493 kts | 128° |
| 2026-05-06 09:27 | -39.20426 | 170.69820 | 39254 ft | 493 kts | 128° |
| 2026-05-06 09:28 | -39.24383 | 170.76987 | 39266 ft | 494 kts | 128° |
| 2026-05-06 09:28 | -39.28380 | 170.84241 | 39265 ft | 495 kts | 128° |
| 2026-05-06 09:29 | -39.32350 | 170.91466 | 39268 ft | 495 kts | 128° |
| 2026-05-06 09:29 | -39.36328 | 170.98720 | 39271 ft | 494 kts | 128° |
| 2026-05-06 09:30 | -39.40295 | 171.05971 | 39274 ft | 493 kts | 128° |
| 2026-05-06 09:30 | -39.44262 | 171.13238 | 39273 ft | 494 kts | 128° |
| 2026-05-06 09:31 | -39.48302 | 171.20341 | 39279 ft | 491 kts | 134° |
| 2026-05-06 09:31 | -39.52851 | 171.26948 | 39281 ft | 490 kts | 135° |
| 2026-05-06 09:32 | -39.57431 | 171.33500 | 39280 ft | 490 kts | 135° |
| 2026-05-06 09:32 | -39.61979 | 171.40033 | 39284 ft | 490 kts | 135° |
| 2026-05-06 09:33 | -39.66549 | 171.46621 | 39284 ft | 490 kts | 135° |
| 2026-05-06 09:33 | -39.71085 | 171.53173 | 39287 ft | 490 kts | 135° |
| 2026-05-06 09:34 | -39.75645 | 171.59777 | 39287 ft | 490 kts | 135° |
| 2026-05-06 09:34 | -39.80194 | 171.66379 | 39291 ft | 490 kts | 135° |
| 2026-05-06 09:35 | -39.84692 | 171.72921 | 39294 ft | 486 kts | 135° |
| 2026-05-06 09:35 | -39.89199 | 171.79490 | 39297 ft | 485 kts | 135° |
| 2026-05-06 09:36 | -39.93695 | 171.86057 | 39297 ft | 485 kts | 135° |
| 2026-05-06 09:36 | -39.98169 | 171.92605 | 39304 ft | 485 kts | 135° |
| 2026-05-06 09:37 | -40.02667 | 171.99203 | 39304 ft | 486 kts | 135° |
| 2026-05-06 09:37 | -40.07167 | 172.05817 | 39298 ft | 485 kts | 134° |
| 2026-05-06 09:38 | -40.11598 | 172.12347 | 39305 ft | 481 kts | 134° |
| 2026-05-06 09:38 | -40.16046 | 172.18913 | 39306 ft | 480 kts | 134° |
| 2026-05-06 09:39 | -40.20448 | 172.25425 | 39310 ft | 480 kts | 134° |
| 2026-05-06 09:39 | -40.24885 | 172.32003 | 39313 ft | 481 kts | 134° |
| 2026-05-06 09:40 | -40.29311 | 172.38579 | 39311 ft | 481 kts | 134° |
| 2026-05-06 09:40 | -40.35909 | 172.48410 | 39221 ft | 476 kts | 134° |
| 2026-05-06 09:41 | -40.38087 | 172.51664 | 38999 ft | 473 kts | 134° |
| 2026-05-06 09:41 | -40.40258 | 172.54908 | 38722 ft | 472 kts | 134° |
| 2026-05-06 09:41 | -40.42429 | 172.58156 | 38443 ft | 473 kts | 134° |
| 2026-05-06 09:41 | -40.44577 | 172.61371 | 38167 ft | 474 kts | 134° |
| 2026-05-06 09:42 | -40.46756 | 172.64639 | 37827 ft | 473 kts | 134° |
| 2026-05-06 09:42 | -40.48923 | 172.67892 | 37109 ft | 470 kts | 134° |
| 2026-05-06 09:42 | -40.51073 | 172.71123 | 36324 ft | 470 kts | 134° |
| 2026-05-06 09:42 | -40.53231 | 172.74368 | 35493 ft | 472 kts | 134° |
| 2026-05-06 09:43 | -40.55401 | 172.77635 | 34614 ft | 475 kts | 134° |
| 2026-05-06 09:43 | -40.57582 | 172.80921 | 33636 ft | 478 kts | 134° |
| 2026-05-06 09:43 | -40.59774 | 172.84228 | 32687 ft | 479 kts | 133° |
| 2026-05-06 09:43 | -40.61939 | 172.87500 | 31741 ft | 480 kts | 133° |
| 2026-05-06 09:44 | -40.64142 | 172.90830 | 30709 ft | 482 kts | 133° |
| 2026-05-06 09:44 | -40.66343 | 172.94162 | 29582 ft | 483 kts | 133° |
| 2026-05-06 09:44 | -40.68552 | 172.97511 | 28439 ft | 482 kts | 133° |
| 2026-05-06 09:44 | -40.70755 | 173.00855 | 27273 ft | 481 kts | 132° |
| 2026-05-06 09:45 | -40.72924 | 173.04149 | 26100 ft | 482 kts | 132° |
| 2026-05-06 09:45 | -40.75122 | 173.07491 | 24849 ft | 484 kts | 132° |
| 2026-05-06 09:45 | -40.77337 | 173.10864 | 24227 ft | 491 kts | 131° |
| 2026-05-06 09:45 | -40.79616 | 173.14338 | 23979 ft | 504 kts | 131° |
| 2026-05-06 09:46 | -40.81913 | 173.17842 | 23720 ft | 504 kts | 131° |
| 2026-05-06 09:46 | -40.84201 | 173.21336 | 23444 ft | 500 kts | 131° |
| 2026-05-06 09:46 | -40.86445 | 173.24768 | 23181 ft | 498 kts | 131° |
| 2026-05-06 09:46 | -40.88706 | 173.28230 | 22917 ft | 496 kts | 131° |
| 2026-05-06 09:47 | -40.90960 | 173.31685 | 22653 ft | 494 kts | 131° |
| 2026-05-06 09:47 | -40.93206 | 173.35130 | 22394 ft | 493 kts | 131° |
| 2026-05-06 09:47 | -40.95440 | 173.38563 | 22137 ft | 492 kts | 131° |
| 2026-05-06 09:47 | -40.97670 | 173.41992 | 21897 ft | 491 kts | 131° |
| 2026-05-06 09:48 | -40.99893 | 173.45415 | 21645 ft | 490 kts | 131° |
| 2026-05-06 09:48 | -41.02115 | 173.48840 | 21393 ft | 488 kts | 131° |
| 2026-05-06 09:48 | -41.04307 | 173.52222 | 21154 ft | 487 kts | 131° |
| 2026-05-06 09:48 | -41.06509 | 173.55624 | 20896 ft | 485 kts | 131° |
| 2026-05-06 09:49 | -41.08703 | 173.59017 | 20649 ft | 482 kts | 131° |
| 2026-05-06 09:49 | -41.10884 | 173.62395 | 20406 ft | 481 kts | 131° |
| 2026-05-06 09:49 | -41.13030 | 173.65721 | 20173 ft | 479 kts | 131° |
| 2026-05-06 09:49 | -41.15194 | 173.69079 | 19931 ft | 478 kts | 130° |
| 2026-05-06 09:50 | -41.17355 | 173.72437 | 19690 ft | 477 kts | 130° |
| 2026-05-06 09:50 | -41.19505 | 173.75780 | 19448 ft | 474 kts | 130° |
| 2026-05-06 09:50 | -41.21626 | 173.79083 | 18662 ft | 462 kts | 130° |
| 2026-05-06 09:50 | -41.23701 | 173.82317 | 17599 ft | 455 kts | 130° |
| 2026-05-06 09:51 | -41.25728 | 173.85480 | 16685 ft | 444 kts | 130° |
| 2026-05-06 09:51 | -41.27685 | 173.88537 | 15783 ft | 435 kts | 130° |
| 2026-05-06 09:51 | -41.29630 | 173.91578 | 14875 ft | 427 kts | 130° |
| 2026-05-06 09:51 | -41.31463 | 173.94643 | 14002 ft | 419 kts | 123° |
| 2026-05-06 09:52 | -41.32779 | 173.98043 | 13110 ft | 408 kts | 111° |
| 2026-05-06 09:52 | -41.33771 | 174.01545 | 12238 ft | 399 kts | 108° |
| 2026-05-06 09:52 | -41.34682 | 174.04987 | 11643 ft | 384 kts | 108° |
| 2026-05-06 09:52 | -41.35528 | 174.08198 | 11511 ft | 357 kts | 108° |
| 2026-05-06 09:53 | -41.36327 | 174.11228 | 11335 ft | 334 kts | 108° |
| 2026-05-06 09:53 | -41.37068 | 174.14029 | 11173 ft | 314 kts | 108° |
| 2026-05-06 09:53 | -41.37775 | 174.16700 | 11029 ft | 298 kts | 108° |
| 2026-05-06 09:53 | -41.38452 | 174.19256 | 10898 ft | 286 kts | 107° |
| 2026-05-06 09:54 | -41.39112 | 174.21752 | 10623 ft | 286 kts | 108° |
| 2026-05-06 09:54 | -41.39773 | 174.24257 | 10135 ft | 286 kts | 108° |
| 2026-05-06 09:54 | -41.40435 | 174.26760 | 9656 ft | 285 kts | 108° |
| 2026-05-06 09:54 | -41.41085 | 174.29217 | 9238 ft | 283 kts | 108° |
| 2026-05-06 09:55 | -41.41738 | 174.31687 | 8816 ft | 282 kts | 108° |
| 2026-05-06 09:55 | -41.42386 | 174.34140 | 8413 ft | 280 kts | 108° |
| 2026-05-06 09:55 | -41.43033 | 174.36591 | 7993 ft | 280 kts | 108° |
| 2026-05-06 09:55 | -41.43680 | 174.39047 | 7574 ft | 281 kts | 108° |
| 2026-05-06 09:56 | -41.44324 | 174.41491 | 7148 ft | 278 kts | 108° |
| 2026-05-06 09:56 | -41.44959 | 174.43905 | 6741 ft | 279 kts | 109° |
| 2026-05-06 09:56 | -41.45600 | 174.46342 | 6305 ft | 278 kts | 109° |
| 2026-05-06 09:56 | -41.46239 | 174.48776 | 5893 ft | 278 kts | 109° |
| 2026-05-06 09:57 | -41.46870 | 174.51178 | 5661 ft | 267 kts | 109° |
| 2026-05-06 09:57 | -41.47464 | 174.53441 | 5604 ft | 252 kts | 109° |
| 2026-05-06 09:57 | -41.48039 | 174.55638 | 5316 ft | 251 kts | 109° |
| 2026-05-06 09:57 | -41.48611 | 174.57827 | 4911 ft | 254 kts | 109° |
| 2026-05-06 09:58 | -41.49052 | 174.60125 | 4547 ft | 254 kts | 96° |
| 2026-05-06 09:58 | -41.49172 | 174.61677 | 4335 ft | 253 kts | 92° |
| 2026-05-06 09:58 | -41.49276 | 174.64021 | 3988 ft | 253 kts | 90° |
| 2026-05-06 09:58 | -41.49360 | 174.66369 | 3632 ft | 254 kts | 91° |
| 2026-05-06 09:59 | -41.49473 | 174.69411 | 3434 ft | 238 kts | 89° |
| 2026-05-06 09:59 | -41.49530 | 174.70875 | 3386 ft | 229 kts | 89° |
| 2026-05-06 09:59 | -41.49609 | 174.72943 | 3121 ft | 226 kts | 88° |
| 2026-05-06 09:59 | -41.49686 | 174.75048 | 2812 ft | 225 kts | 88° |
| 2026-05-06 10:00 | -41.49673 | 174.77119 | 2473 ft | 221 kts | 72° |
| 2026-05-06 10:00 | -41.49031 | 174.78837 | 2184 ft | 198 kts | 34° |
| 2026-05-06 10:00 | -41.47512 | 174.79710 | 2006 ft | 172 kts | 0° |
| 2026-05-06 10:00 | -41.46711 | 174.79806 | 1995 ft | 171 kts | 356° |
| 2026-05-06 10:01 | -41.45513 | 174.79877 | 1998 ft | 172 kts | 355° |
| 2026-05-06 10:01 | -41.44340 | 174.79938 | 1972 ft | 169 kts | 356° |
| 2026-05-06 10:01 | -41.43181 | 174.80003 | 1999 ft | 158 kts | 357° |
| 2026-05-06 10:01 | -41.42178 | 174.80073 | 1925 ft | 132 kts | 357° |
| 2026-05-06 10:02 | -41.41335 | 174.80132 | 1740 ft | 115 kts | 357° |
| 2026-05-06 10:02 | -41.40553 | 174.80180 | 1475 ft | 108 kts | 357° |
| 2026-05-06 10:02 | -41.39829 | 174.80227 | 1313 ft | 100 kts | 355° |
| 2026-05-06 10:02 | -41.39117 | 174.80268 | 1076 ft | 105 kts | 358° |
| 2026-05-06 10:03 | -41.38375 | 174.80315 | 960 ft | 107 kts | 358° |
| 2026-05-06 10:03 | -41.37636 | 174.80361 | 829 ft | 107 kts | 0° |
| 2026-05-06 10:03 | -41.36891 | 174.80375 | 662 ft | 106 kts | 353° |
| 2026-05-06 10:03 | -41.36148 | 174.80462 | 556 ft | 108 kts | 6° |
| 2026-05-06 10:04 | -41.35408 | 174.80551 | 468 ft | 103 kts | 357° |
| 2026-05-06 10:04 | -41.34700 | 174.80555 | 271 ft | 101 kts | 359° |
| 2026-05-06 10:04 | -41.33977 | 174.80616 | 137 ft | 106 kts | 359° |
| 2026-05-06 10:04 | -41.33260 | 174.80654 | 28 ft | 98 kts | 0° |
| 2026-05-06 10:05 | -41.32748 | 174.80686 | 20 ft | 40 kts | 2° |
| 2026-05-06 10:05 | -41.32684 | 174.80743 | 21 ft | 3 kts | 102° |
| 2026-05-06 10:05 | -41.32720 | 174.80885 | 21 ft | 29 kts | 125° |
| 2026-05-06 10:05 | -41.32774 | 174.80988 | 22 ft | 0 kts | 131° |